Time;durP1;ratioP1;P1;durP2;ratioP2;P2;SDS_P1;SDS_P2;PMS_P1;PMS_P2;Temp;Humidity;BMP_temperature;BMP_pressure;BME280_temperature;BME280_humidity;BME280_pressure;Samples;Min_cycle;Max_cycle;Signal;HPM_P1;HPM_P2
2022/10/08 00:00:43;;;;;;;;;12.00;12.00;;;;;;;;5100726;27;45289;-77
2022/10/08 00:03:08;;;;;;;;;11.75;11.75;;;;;;;;5100830;27;45873;-77
2022/10/08 00:05:33;;;;;;;;;9.75;9.75;;;;;;;;5100661;27;45575;-76
2022/10/08 00:07:59;;;;;;;;;12.75;12.75;;;;;;;;5101710;27;45744;-78
2022/10/08 00:10:24;;;;;;;;;9.50;9.50;;;;;;;;5103609;27;45349;-76
2022/10/08 00:12:49;;;;;;;;;11.00;11.00;;;;;;;;5101398;27;45534;-77
2022/10/08 00:15:14;;;;;;;;;18.25;17.25;;;;;;;;5099539;27;45311;-76
2022/10/08 00:17:40;;;;;;;;;9.25;8.00;;;;;;;;5100018;27;47373;-75
2022/10/08 00:20:05;;;;;;;;;8.25;8.25;;;;;;;;5101394;27;45418;-77
2022/10/08 00:22:30;;;;;;;;;5.50;5.50;;;;;;;;5098615;27;45404;-77
2022/10/08 00:24:56;;;;;;;;;5.50;5.50;;;;;;;;5099951;27;45556;-78
2022/10/08 00:27:25;;;;;;;;;5.00;5.00;;;;;;;;5099894;27;46933;-77
2022/10/08 00:29:53;;;;;;;;;8.00;7.00;;;;;;;;5100121;27;45315;-77
2022/10/08 00:32:18;;;;;;;;;5.00;5.00;;;;;;;;5099986;27;45219;-75
2022/10/08 00:34:44;;;;;;;;;6.00;6.00;;;;;;;;5100679;27;45572;-77
2022/10/08 00:37:09;;;;;;;;;6.00;6.00;;;;;;;;5099982;27;45230;-76
2022/10/08 00:39:34;;;;;;;;;5.50;5.50;;;;;;;;5098680;27;45674;-75
2022/10/08 00:42:01;;;;;;;;;6.00;6.00;;;;;;;;5100366;27;45412;-77
2022/10/08 00:44:44;;;;;;;;;4.25;4.25;;;;;;;;5101423;27;45453;-75
2022/10/08 00:47:19;;;;;;;;;5.00;5.00;;;;;;;;5100128;27;45623;-75
2022/10/08 00:49:45;;;;;;;;;4.75;4.75;;;;;;;;5099396;27;45226;-76
2022/10/08 00:52:13;;;;;;;;;4.00;4.00;;;;;;;;5099314;27;45294;-76
2022/10/08 00:54:39;;;;;;;;;7.00;7.00;;;;;;;;5099710;27;45380;-77
2022/10/08 00:57:06;;;;;;;;;3.75;3.75;;;;;;;;5099540;27;45428;-75
2022/10/08 00:59:31;;;;;;;;;5.25;5.25;;;;;;;;5099399;27;45337;-78
2022/10/08 01:01:56;;;;;;;;;6.00;6.00;;;;;;;;5099587;27;45359;-79
2022/10/08 01:04:21;;;;;;;;;3.50;3.50;;;;;;;;5100616;27;45589;-77
2022/10/08 01:06:53;;;;;;;;;3.00;3.00;;;;;;;;5097304;27;47763;-77
2022/10/08 01:09:30;;;;;;;;;3.00;3.00;;;;;;;;5100721;27;45389;-77
2022/10/08 01:12:14;;;;;;;;;3.75;3.75;;;;;;;;5107007;27;45388;-78
2022/10/08 01:14:55;;;;;;;;;3.25;3.00;;;;;;;;5104152;27;45159;-77
2022/10/08 01:17:33;;;;;;;;;5.25;5.25;;;;;;;;5102472;27;45507;-77
2022/10/08 01:20:17;;;;;;;;;6.75;6.75;;;;;;;;5099606;27;45403;-75
2022/10/08 01:23:01;;;;;;;;;5.00;5.00;;;;;;;;5102792;27;45357;-77
2022/10/08 01:25:32;;;;;;;;;6.00;6.00;;;;;;;;5102838;27;45329;-76
2022/10/08 01:28:11;;;;;;;;;6.50;6.50;;;;;;;;5100432;27;45956;-77
2022/10/08 01:30:38;;;;;;;;;7.00;7.00;;;;;;;;5099022;27;45348;-75
2022/10/08 01:33:22;;;;;;;;;7.00;7.00;;;;;;;;5100845;27;45361;-76
2022/10/08 01:35:52;;;;;;;;;9.00;8.50;;;;;;;;5098885;27;45765;-76
2022/10/08 01:38:19;;;;;;;;;4.00;4.00;;;;;;;;5097907;27;46492;-76
2022/10/08 01:40:45;;;;;;;;;4.75;4.75;;;;;;;;5097851;27;45449;-76
2022/10/08 01:43:14;;;;;;;;;6.00;5.50;;;;;;;;5098380;27;45355;-77
2022/10/08 01:45:42;;;;;;;;;4.50;4.50;;;;;;;;5098753;27;45183;-76
2022/10/08 01:48:10;;;;;;;;;4.00;3.00;;;;;;;;5098540;27;46513;-76
2022/10/08 01:50:43;;;;;;;;;4.25;4.25;;;;;;;;5098274;27;45422;-76
2022/10/08 01:53:10;;;;;;;;;4.00;4.00;;;;;;;;5098707;27;45263;-76
2022/10/08 01:55:40;;;;;;;;;4.75;3.00;;;;;;;;5098219;27;45440;-74
2022/10/08 01:58:07;;;;;;;;;6.00;6.00;;;;;;;;5097933;27;46876;-77
2022/10/08 02:00:33;;;;;;;;;3.25;3.25;;;;;;;;5100439;27;45265;-76
2022/10/08 02:02:59;;;;;;;;;4.00;3.50;;;;;;;;5100263;27;45265;-76
2022/10/08 02:05:27;;;;;;;;;3.00;3.00;;;;;;;;5098356;27;45207;-76
2022/10/08 02:07:53;;;;;;;;;3.00;3.00;;;;;;;;5099409;27;45479;-77
2022/10/08 02:10:21;;;;;;;;;4.00;4.00;;;;;;;;5098110;27;45358;-77
2022/10/08 02:12:46;;;;;;;;;3.25;3.25;;;;;;;;5096384;27;45412;-75
2022/10/08 02:15:14;;;;;;;;;2.00;2.00;;;;;;;;5096697;27;45654;-76
2022/10/08 02:18:05;;;;;;;;;3.75;3.75;;;;;;;;5097526;27;46079;-76
2022/10/08 02:20:33;;;;;;;;;3.00;3.00;;;;;;;;5098231;27;45480;-75
2022/10/08 02:23:08;;;;;;;;;3.25;3.25;;;;;;;;5097948;27;45339;-77
2022/10/08 02:25:42;;;;;;;;;3.75;3.75;;;;;;;;5098088;27;45234;-77
2022/10/08 02:28:15;;;;;;;;;2.25;2.25;;;;;;;;5095684;27;47563;-77
2022/10/08 02:30:49;;;;;;;;;2.00;2.00;;;;;;;;5098322;27;45354;-76
2022/10/08 02:33:17;;;;;;;;;3.00;3.00;;;;;;;;5101307;27;45377;-77
2022/10/08 02:35:45;;;;;;;;;2.50;2.50;;;;;;;;5099260;27;45562;-77
2022/10/08 02:38:13;;;;;;;;;5.00;5.00;;;;;;;;5098409;27;46131;-78
2022/10/08 02:40:40;;;;;;;;;3.00;3.00;;;;;;;;5102310;27;45444;-76
2022/10/08 02:43:08;;;;;;;;;2.00;2.00;;;;;;;;5115815;27;44751;-75
2022/10/08 02:45:40;;;;;;;;;1.75;1.75;;;;;;;;5103676;27;45386;-75
2022/10/08 02:48:09;;;;;;;;;1.75;1.75;;;;;;;;5100444;27;45328;-76
2022/10/08 02:50:35;;;;;;;;;3.00;3.00;;;;;;;;5098113;27;45388;-77
2022/10/08 02:53:01;;;;;;;;;2.00;2.00;;;;;;;;5098140;27;45409;-77
2022/10/08 02:55:38;;;;;;;;;3.00;3.00;;;;;;;;5096885;27;45515;-78
2022/10/08 02:58:05;;;;;;;;;2.00;2.00;;;;;;;;5096405;27;46415;-77
2022/10/08 03:00:35;;;;;;;;;2.25;2.25;;;;;;;;5095151;27;45444;-76
2022/10/08 03:03:08;;;;;;;;;3.00;3.00;;;;;;;;5097061;27;45362;-79
2022/10/08 03:05:35;;;;;;;;;3.25;3.25;;;;;;;;5101523;27;45223;-76
2022/10/08 03:08:03;;;;;;;;;1.25;1.25;;;;;;;;5105241;27;46489;-76
2022/10/08 03:10:29;;;;;;;;;3.25;3.25;;;;;;;;5098126;27;45371;-76
2022/10/08 03:12:59;;;;;;;;;2.00;2.00;;;;;;;;5096242;27;45329;-76
2022/10/08 03:15:25;;;;;;;;;4.25;4.25;;;;;;;;5097456;27;45409;-77
2022/10/08 03:17:50;;;;;;;;;3.00;3.00;;;;;;;;5098504;27;46217;-78
2022/10/08 03:20:16;;;;;;;;;3.00;3.00;;;;;;;;5097670;27;45507;-76
2022/10/08 03:22:41;;;;;;;;;2.75;2.75;;;;;;;;5098228;27;45451;-76
2022/10/08 03:25:06;;;;;;;;;3.00;3.00;;;;;;;;5096641;27;45466;-76
2022/10/08 03:27:33;;;;;;;;;4.00;4.00;;;;;;;;5097724;27;46136;-78
2022/10/08 03:29:59;;;;;;;;;2.75;2.75;;;;;;;;5097210;27;45376;-76
2022/10/08 03:32:25;;;;;;;;;3.00;3.00;;;;;;;;5097574;27;45338;-76
2022/10/08 03:34:50;;;;;;;;;3.00;3.00;;;;;;;;5097038;27;45321;-76
2022/10/08 03:37:15;;;;;;;;;3.25;3.25;;;;;;;;5100081;27;46661;-76
2022/10/08 03:39:42;;;;;;;;;2.75;2.75;;;;;;;;5099877;27;45315;-77
2022/10/08 03:42:07;;;;;;;;;3.00;3.00;;;;;;;;5099813;27;45337;-76
2022/10/08 03:44:32;;;;;;;;;2.25;2.25;;;;;;;;5100141;27;45173;-78
2022/10/08 03:46:57;;;;;;;;;2.25;2.25;;;;;;;;5098786;27;45338;-77
2022/10/08 03:49:22;;;;;;;;;3.00;3.00;;;;;;;;5095428;27;45214;-78
2022/10/08 03:51:48;;;;;;;;;1.25;1.25;;;;;;;;5097796;27;45446;-77
2022/10/08 03:54:13;;;;;;;;;2.00;2.00;;;;;;;;5097923;27;45614;-77
2022/10/08 03:56:38;;;;;;;;;3.00;3.00;;;;;;;;5097939;27;45473;-76
2022/10/08 03:59:03;;;;;;;;;3.00;3.00;;;;;;;;5097463;27;45504;-77
2022/10/08 04:01:29;;;;;;;;;2.00;2.00;;;;;;;;5096850;27;45274;-75
2022/10/08 04:03:54;;;;;;;;;3.25;2.00;;;;;;;;5097707;27;45675;-77
2022/10/08 04:06:19;;;;;;;;;1.75;1.75;;;;;;;;5098095;27;46013;-79
2022/10/08 04:08:44;;;;;;;;;2.25;2.25;;;;;;;;5098010;27;45341;-75
2022/10/08 04:11:14;;;;;;;;;3.00;3.00;;;;;;;;5106313;27;45384;-76
2022/10/08 04:13:40;;;;;;;;;1.75;1.75;;;;;;;;5100060;27;45450;-78
2022/10/08 04:16:06;;;;;;;;;3.00;3.00;;;;;;;;5098186;27;45341;-76
2022/10/08 04:18:32;;;;;;;;;2.75;2.75;;;;;;;;5099037;27;45189;-77
2022/10/08 04:21:01;;;;;;;;;2.75;2.75;;;;;;;;5098230;27;45286;-77
2022/10/08 04:23:27;;;;;;;;;2.00;2.00;;;;;;;;5099940;27;45509;-77
2022/10/08 04:25:52;;;;;;;;;3.75;3.75;;;;;;;;5098193;27;45391;-76
2022/10/08 04:28:18;;;;;;;;;4.00;4.00;;;;;;;;5097235;27;45325;-78
2022/10/08 04:30:53;;;;;;;;;4.50;4.00;;;;;;;;5096846;27;45332;-76
2022/10/08 04:33:18;;;;;;;;;4.75;4.75;;;;;;;;5095664;27;45452;-76
2022/10/08 04:35:43;;;;;;;;;2.00;2.00;;;;;;;;5095435;27;46843;-76
2022/10/08 04:38:08;;;;;;;;;3.25;3.00;;;;;;;;5096801;27;45368;-78
2022/10/08 04:40:34;;;;;;;;;3.00;3.00;;;;;;;;5097934;27;45366;-77
2022/10/08 04:42:59;;;;;;;;;3.00;3.00;;;;;;;;5102453;27;45344;-76
2022/10/08 04:45:24;;;;;;;;;2.50;2.50;;;;;;;;5102449;27;45443;-76
2022/10/08 04:47:49;;;;;;;;;3.25;3.25;;;;;;;;5101634;27;45426;-77
2022/10/08 04:50:14;;;;;;;;;3.50;3.50;;;;;;;;5110173;27;45388;-77
2022/10/08 04:52:40;;;;;;;;;5.25;4.75;;;;;;;;5113309;27;45366;-75
2022/10/08 04:55:05;;;;;;;;;4.00;4.00;;;;;;;;5111383;27;45397;-75
2022/10/08 04:57:30;;;;;;;;;4.00;4.00;;;;;;;;5101527;27;45340;-77
2022/10/08 04:59:56;;;;;;;;;4.25;4.25;;;;;;;;5099701;27;45377;-76
2022/10/08 05:02:21;;;;;;;;;3.00;3.00;;;;;;;;5100194;27;45699;-75
2022/10/08 05:04:46;;;;;;;;;5.00;5.00;;;;;;;;5097564;27;47585;-76
2022/10/08 05:07:11;;;;;;;;;5.00;4.25;;;;;;;;5099209;27;45390;-78
2022/10/08 05:09:36;;;;;;;;;3.25;3.25;;;;;;;;5099429;27;45344;-77
2022/10/08 05:12:02;;;;;;;;;3.50;3.50;;;;;;;;5101905;27;45218;-76
2022/10/08 05:14:27;;;;;;;;;3.00;3.00;;;;;;;;5098938;27;46098;-78
2022/10/08 05:16:52;;;;;;;;;3.00;3.00;;;;;;;;5098818;27;45182;-75
2022/10/08 05:19:17;;;;;;;;;4.75;4.75;;;;;;;;5098871;27;45271;-74
2022/10/08 05:21:42;;;;;;;;;5.00;5.00;;;;;;;;5080702;27;45552;-76
2022/10/08 05:24:10;;;;;;;;;5.00;5.00;;;;;;;;5083195;28;46058;-78
2022/10/08 05:26:36;;;;;;;;;3.00;3.00;;;;;;;;5079128;28;45313;-75
2022/10/08 05:29:02;;;;;;;;;4.75;4.00;;;;;;;;5060081;28;45362;-75
2022/10/08 05:31:28;;;;;;;;;2.00;2.00;;;;;;;;5060182;28;45336;-76
2022/10/08 05:33:53;;;;;;;;;3.00;3.00;;;;;;;;5078416;28;46052;-75
2022/10/08 05:36:20;;;;;;;;;2.50;2.50;;;;;;;;5079580;28;45521;-75
2022/10/08 05:38:46;;;;;;;;;4.50;4.50;;;;;;;;5078190;28;45299;-76
2022/10/08 05:41:14;;;;;;;;;2.25;2.25;;;;;;;;5060774;28;45332;-75
2022/10/08 05:43:39;;;;;;;;;3.25;3.25;;;;;;;;5060484;28;46326;-78
2022/10/08 05:46:05;;;;;;;;;4.00;3.50;;;;;;;;5079153;28;45413;-76
2022/10/08 05:48:30;;;;;;;;;5.00;5.00;;;;;;;;5060228;28;45435;-76
2022/10/08 05:50:56;;;;;;;;;4.50;4.50;;;;;;;;5060513;28;45515;-77
2022/10/08 05:53:21;;;;;;;;;4.25;4.25;;;;;;;;5077968;28;45579;-76
2022/10/08 05:55:46;;;;;;;;;3.25;2.75;;;;;;;;5079402;28;45372;-76
2022/10/08 05:58:11;;;;;;;;;5.00;4.00;;;;;;;;5063067;28;45397;-77
2022/10/08 06:00:36;;;;;;;;;5.00;4.25;;;;;;;;5064205;28;45490;-76
2022/10/08 06:03:02;;;;;;;;;4.25;4.25;;;;;;;;5081510;28;45366;-77
2022/10/08 06:05:27;;;;;;;;;3.75;3.75;;;;;;;;5083396;28;45338;-77
2022/10/08 06:07:56;;;;;;;;;6.00;6.00;;;;;;;;5061051;28;45396;-75
2022/10/08 06:10:21;;;;;;;;;5.25;5.00;;;;;;;;5079383;28;45284;-76
2022/10/08 06:12:47;;;;;;;;;4.00;4.00;;;;;;;;5059931;28;46069;-77
2022/10/08 06:15:12;;;;;;;;;4.00;4.00;;;;;;;;5078912;28;45291;-77
2022/10/08 06:17:38;;;;;;;;;4.50;4.50;;;;;;;;5079105;28;45220;-78
2022/10/08 06:20:03;;;;;;;;;6.25;6.25;;;;;;;;5082408;27;45522;-76
2022/10/08 06:22:28;;;;;;;;;4.50;4.50;;;;;;;;5097783;27;45684;-77
2022/10/08 06:24:53;;;;;;;;;7.50;6.75;;;;;;;;5098037;27;45374;-77
2022/10/08 06:27:19;;;;;;;;;4.50;4.50;;;;;;;;5099582;27;45754;-76
2022/10/08 06:29:44;;;;;;;;;6.75;6.75;;;;;;;;5099881;27;45262;-78
2022/10/08 06:32:09;;;;;;;;;2.00;2.00;;;;;;;;5101627;27;46085;-75
2022/10/08 06:34:34;;;;;;;;;4.50;4.50;;;;;;;;5106211;27;45256;-76
2022/10/08 06:37:00;;;;;;;;;5.75;5.75;;;;;;;;5103926;27;45377;-76
2022/10/08 06:39:25;;;;;;;;;4.00;4.00;;;;;;;;5112899;27;45468;-76
2022/10/08 06:41:50;;;;;;;;;3.50;3.50;;;;;;;;5104865;27;46908;-76
2022/10/08 06:44:17;;;;;;;;;5.75;5.75;;;;;;;;5097990;27;45468;-77
2022/10/08 06:46:43;;;;;;;;;4.00;4.00;;;;;;;;5100957;27;45251;-77
2022/10/08 06:49:09;;;;;;;;;6.50;6.50;;;;;;;;5101019;27;45562;-75
2022/10/08 06:51:34;;;;;;;;;4.75;4.75;;;;;;;;5099523;27;45530;-76
2022/10/08 06:54:00;;;;;;;;;6.00;6.00;;;;;;;;5098791;27;45396;-76
2022/10/08 06:56:26;;;;;;;;;5.75;5.75;;;;;;;;5098050;27;45246;-77
2022/10/08 06:58:51;;;;;;;;;5.50;5.50;;;;;;;;5099026;27;45461;-77
2022/10/08 07:01:24;;;;;;;;;4.75;4.75;;;;;;;;5099474;27;46429;-75
2022/10/08 07:03:50;;;;;;;;;5.00;5.00;;;;;;;;5099636;27;45524;-77
2022/10/08 07:06:15;;;;;;;;;4.50;4.50;;;;;;;;5100271;27;45239;-76
2022/10/08 07:08:41;;;;;;;;;4.25;4.25;;;;;;;;5097912;27;45255;-76
2022/10/08 07:11:13;;;;;;;;;4.00;4.00;;;;;;;;5099634;27;45293;-75
2022/10/08 07:13:39;;;;;;;;;7.00;7.00;;;;;;;;5098748;27;45361;-75
2022/10/08 07:16:08;;;;;;;;;6.25;6.25;;;;;;;;5097214;27;45384;-77
2022/10/08 07:18:34;;;;;;;;;5.00;5.00;;;;;;;;5098165;27;45330;-76
2022/10/08 07:20:59;;;;;;;;;6.75;6.75;;;;;;;;5096077;27;46660;-75
2022/10/08 07:23:25;;;;;;;;;5.25;5.25;;;;;;;;5096151;27;45445;-76
2022/10/08 07:25:59;;;;;;;;;10.50;9.00;;;;;;;;5096509;27;45492;-76
2022/10/08 07:28:26;;;;;;;;;5.50;5.50;;;;;;;;5097255;27;45634;-78
2022/10/08 07:30:51;;;;;;;;;5.50;5.50;;;;;;;;5096511;27;47398;-77
2022/10/08 07:33:17;;;;;;;;;6.25;6.25;;;;;;;;5096659;27;45359;-79
2022/10/08 07:35:42;;;;;;;;;7.00;7.00;;;;;;;;5097820;27;45937;-77
2022/10/08 07:38:07;;;;;;;;;6.00;6.00;;;;;;;;5094989;27;45267;-78
2022/10/08 07:40:35;;;;;;;;;9.25;8.50;;;;;;;;5096171;27;45335;-78
2022/10/08 07:43:01;;;;;;;;;4.00;4.00;;;;;;;;5095913;27;45336;-76
2022/10/08 07:45:26;;;;;;;;;7.50;7.50;;;;;;;;5094658;27;45309;-76
2022/10/08 07:47:51;;;;;;;;;6.50;6.50;;;;;;;;5097104;27;45576;-77
2022/10/08 07:50:16;;;;;;;;;5.25;5.25;;;;;;;;5096540;27;45932;-76
2022/10/08 07:52:42;;;;;;;;;6.75;6.75;;;;;;;;5096757;27;45223;-76
2022/10/08 07:55:07;;;;;;;;;5.00;5.00;;;;;;;;5097494;27;45527;-77
2022/10/08 07:57:32;;;;;;;;;6.00;6.00;;;;;;;;5098399;27;45202;-79
2022/10/08 07:59:57;;;;;;;;;7.25;7.25;;;;;;;;5098561;27;45377;-78
2022/10/08 08:02:22;;;;;;;;;8.75;8.75;;;;;;;;5096955;27;45430;-76
2022/10/08 08:04:48;;;;;;;;;6.50;6.50;;;;;;;;5097315;27;45298;-76
2022/10/08 08:07:13;;;;;;;;;5.00;5.00;;;;;;;;5097829;27;45571;-78
2022/10/08 08:09:39;;;;;;;;;5.50;5.00;;;;;;;;5095387;27;46968;-78
2022/10/08 08:12:04;;;;;;;;;5.00;5.00;;;;;;;;5096962;27;45401;-77
2022/10/08 08:14:29;;;;;;;;;5.25;5.25;;;;;;;;5097226;27;45348;-78
2022/10/08 08:16:54;;;;;;;;;7.75;7.75;;;;;;;;5111311;27;45429;-77
2022/10/08 08:19:20;;;;;;;;;7.00;7.00;;;;;;;;5105708;27;45404;-75
2022/10/08 08:21:45;;;;;;;;;5.50;5.50;;;;;;;;5100747;27;45401;-76
2022/10/08 08:24:11;;;;;;;;;9.00;7.75;;;;;;;;5101070;27;45510;-77
2022/10/08 08:26:37;;;;;;;;;6.25;6.25;;;;;;;;5100151;27;45488;-76
2022/10/08 08:29:07;;;;;;;;;7.50;7.50;;;;;;;;5099724;27;46336;-75
2022/10/08 08:31:34;;;;;;;;;5.00;5.00;;;;;;;;5099294;27;45338;-77
2022/10/08 08:34:01;;;;;;;;;8.25;8.25;;;;;;;;5099334;27;45313;-76
2022/10/08 08:36:31;;;;;;;;;7.75;7.75;;;;;;;;5102932;27;45498;-74
2022/10/08 08:38:57;;;;;;;;;7.25;7.25;;;;;;;;5106330;27;45270;-77
2022/10/08 08:41:25;;;;;;;;;10.50;10.00;;;;;;;;5101147;27;45322;-77
2022/10/08 08:44:01;;;;;;;;;8.00;8.00;;;;;;;;5100288;27;45260;-77
2022/10/08 08:46:29;;;;;;;;;8.00;8.00;;;;;;;;5100828;27;45327;-79
2022/10/08 08:48:56;;;;;;;;;11.50;11.50;;;;;;;;5098117;27;46937;-77
2022/10/08 08:51:22;;;;;;;;;10.00;9.25;;;;;;;;5099211;27;45346;-78
2022/10/08 08:53:47;;;;;;;;;8.00;7.00;;;;;;;;5099238;27;45328;-77
2022/10/08 08:56:14;;;;;;;;;6.50;6.50;;;;;;;;5099502;27;45581;-80
2022/10/08 08:58:57;;;;;;;;;5.75;5.75;;;;;;;;5099156;27;45336;-76
2022/10/08 09:01:38;;;;;;;;;8.00;8.00;;;;;;;;5097968;27;45793;-78
2022/10/08 09:04:09;;;;;;;;;9.00;9.00;;;;;;;;5098142;27;46056;-78
2022/10/08 09:06:36;;;;;;;;;7.00;6.00;;;;;;;;5099179;27;45371;-75
2022/10/08 09:09:10;;;;;;;;;7.25;7.25;;;;;;;;5098280;27;45401;-77
2022/10/08 09:11:38;;;;;;;;;9.00;8.25;;;;;;;;5096698;27;45506;-77
2022/10/08 09:14:13;;;;;;;;;7.00;7.00;;;;;;;;5098209;27;45345;-76
2022/10/08 09:16:38;;;;;;;;;4.50;4.50;;;;;;;;5098396;27;45547;-77
2022/10/08 09:19:03;;;;;;;;;7.25;7.25;;;;;;;;5097828;27;45378;-78
2022/10/08 09:21:30;;;;;;;;;5.75;5.75;;;;;;;;5101554;27;45497;-77
2022/10/08 09:23:55;;;;;;;;;5.00;5.00;;;;;;;;5103713;27;45433;-78
2022/10/08 09:26:22;;;;;;;;;8.75;7.00;;;;;;;;5101231;27;45348;-77
2022/10/08 09:28:49;;;;;;;;;6.25;6.25;;;;;;;;5102056;27;47877;-75
2022/10/08 09:31:29;;;;;;;;;4.75;4.75;;;;;;;;5101045;27;45306;-77
2022/10/08 09:34:09;;;;;;;;;4.00;4.00;;;;;;;;5101951;27;45345;-78
2022/10/08 09:36:36;;;;;;;;;4.75;4.75;;;;;;;;5101680;27;45293;-76
2022/10/08 09:39:04;;;;;;;;;3.50;3.50;;;;;;;;5098727;27;45477;-78
2022/10/08 09:41:30;;;;;;;;;5.50;5.50;;;;;;;;5098945;27;45450;-76
2022/10/08 09:44:14;;;;;;;;;6.25;6.25;;;;;;;;5098942;27;45281;-78
2022/10/08 09:46:39;;;;;;;;;3.25;3.25;;;;;;;;5099799;27;45306;-78
2022/10/08 09:49:20;;;;;;;;;2.50;2.50;;;;;;;;5098364;27;48150;-80
2022/10/08 09:51:46;;;;;;;;;6.00;6.00;;;;;;;;5097981;27;45444;-76
2022/10/08 09:54:13;;;;;;;;;3.00;3.00;;;;;;;;5098045;27;45417;-79
2022/10/08 09:56:38;;;;;;;;;6.00;6.00;;;;;;;;5099460;27;45446;-77
2022/10/08 09:59:04;;;;;;;;;3.00;3.00;;;;;;;;5108499;27;47317;-79
2022/10/08 10:01:30;;;;;;;;;3.25;3.25;;;;;;;;5110051;27;45372;-77
2022/10/08 10:04:00;;;;;;;;;1.50;1.50;;;;;;;;5107911;27;45205;-78
2022/10/08 10:06:32;;;;;;;;;5.00;5.00;;;;;;;;5113925;27;44910;-79
2022/10/08 10:09:00;;;;;;;;;10.00;9.25;;;;;;;;5102222;27;45283;-78
2022/10/08 10:11:29;;;;;;;;;5.25;5.25;;;;;;;;5100720;27;45376;-78
2022/10/08 10:13:56;;;;;;;;;3.00;2.75;;;;;;;;5105204;27;45485;-78
2022/10/08 10:16:24;;;;;;;;;3.00;3.00;;;;;;;;5107265;27;45215;-80
2022/10/08 10:18:56;;;;;;;;;3.00;3.00;;;;;;;;5106313;27;46263;-78
2022/10/08 10:21:28;;;;;;;;;3.00;3.00;;;;;;;;5104529;27;45243;-78
2022/10/08 10:24:02;;;;;;;;;4.25;3.25;;;;;;;;5102894;27;45281;-78
2022/10/08 10:26:30;;;;;;;;;3.00;3.00;;;;;;;;5095443;27;45283;-79
2022/10/08 10:28:57;;;;;;;;;1.75;1.75;;;;;;;;5112310;27;45408;-78
2022/10/08 10:31:41;;;;;;;;;5.25;5.25;;;;;;;;5106597;27;45250;-77
2022/10/08 10:34:11;;;;;;;;;3.00;3.00;;;;;;;;5102469;27;45221;-76
2022/10/08 10:36:40;;;;;;;;;2.25;2.25;;;;;;;;5098638;27;45586;-79
2022/10/08 10:39:26;;;;;;;;;3.00;3.00;;;;;;;;5099190;27;45388;-79
2022/10/08 10:42:07;;;;;;;;;2.00;2.00;;;;;;;;5098255;27;45333;-79
2022/10/08 10:44:44;;;;;;;;;1.00;1.00;;;;;;;;5099337;27;45466;-78
2022/10/08 10:47:10;;;;;;;;;1.00;1.00;;;;;;;;5099698;27;45462;-77
2022/10/08 10:49:37;;;;;;;;;4.25;4.25;;;;;;;;5099568;27;45345;-77
2022/10/08 10:52:20;;;;;;;;;5.25;5.25;;;;;;;;5099990;27;45262;-77
2022/10/08 10:54:46;;;;;;;;;2.50;2.50;;;;;;;;5100704;27;45253;-78
2022/10/08 10:57:16;;;;;;;;;3.50;3.50;;;;;;;;5100859;27;45473;-78
2022/10/08 10:59:49;;;;;;;;;2.00;2.00;;;;;;;;5101913;27;45308;-79
2022/10/08 11:02:21;;;;;;;;;3.00;3.00;;;;;;;;5101574;27;45237;-77
2022/10/08 11:04:49;;;;;;;;;1.50;1.50;;;;;;;;5098425;27;45317;-77
2022/10/08 11:07:28;;;;;;;;;1.00;1.00;;;;;;;;5098888;27;45247;-77
2022/10/08 11:10:02;;;;;;;;;5.00;5.00;;;;;;;;5098783;27;46241;-77
2022/10/08 11:12:30;;;;;;;;;2.50;2.50;;;;;;;;5099018;27;45309;-77
2022/10/08 11:15:00;;;;;;;;;2.00;2.00;;;;;;;;5097387;27;45353;-77
2022/10/08 11:17:26;;;;;;;;;1.75;1.75;;;;;;;;5097485;27;45636;-78
2022/10/08 11:20:01;;;;;;;;;4.25;4.25;;;;;;;;5099136;27;46465;-76
2022/10/08 11:22:27;;;;;;;;;1.25;1.25;;;;;;;;5098958;27;45307;-78
2022/10/08 11:25:03;;;;;;;;;1.00;1.00;;;;;;;;5098482;27;45297;-79
2022/10/08 11:27:38;;;;;;;;;1.25;1.25;;;;;;;;5099511;27;45438;-78
2022/10/08 11:30:13;;;;;;;;;1.00;1.00;;;;;;;;5098406;27;45488;-77
2022/10/08 11:32:39;;;;;;;;;1.25;1.25;;;;;;;;5097319;27;45263;-78
2022/10/08 11:35:11;;;;;;;;;1.25;1.25;;;;;;;;5104644;27;45440;-78
2022/10/08 11:37:41;;;;;;;;;3.00;3.00;;;;;;;;5102738;27;45524;-78
2022/10/08 11:40:29;;;;;;;;;2.25;2.25;;;;;;;;5101039;27;45466;-79
2022/10/08 11:43:03;;;;;;;;;1.00;1.00;;;;;;;;5112245;27;45148;-78
2022/10/08 11:45:30;;;;;;;;;10.25;9.75;;;;;;;;5107615;27;45271;-80
2022/10/08 11:47:57;;;;;;;;;1.50;1.50;;;;;;;;5102909;27;45380;-78
2022/10/08 11:50:28;;;;;;;;;1.00;1.00;;;;;;;;5098893;27;47665;-77
2022/10/08 11:52:58;;;;;;;;;2.25;2.25;;;;;;;;5104946;27;45292;-78
2022/10/08 11:55:26;;;;;;;;;2.75;2.75;;;;;;;;5107979;27;45289;-79
2022/10/08 11:57:56;;;;;;;;;5.50;5.50;;;;;;;;5105151;27;45521;-77
2022/10/08 12:00:36;;;;;;;;;2.00;2.00;;;;;;;;5105423;27;45642;-79
2022/10/08 12:03:04;;;;;;;;;1.00;1.00;;;;;;;;5105929;27;45232;-77
2022/10/08 12:05:59;;;;;;;;;3.00;3.00;;;;;;;;5108967;27;45355;-79
2022/10/08 12:08:43;;;;;;;;;5.00;5.00;;;;;;;;5104713;27;45303;-77
2022/10/08 12:11:34;;;;;;;;;8.50;8.25;;;;;;;;5111404;27;46368;-81
2022/10/08 12:14:15;;;;;;;;;3.00;3.00;;;;;;;;5100918;27;45398;-79
2022/10/08 12:16:47;;;;;;;;;2.50;2.50;;;;;;;;5108118;27;44878;-77
2022/10/08 12:19:31;;;;;;;;;4.25;4.25;;;;;;;;5107606;27;45341;-78
2022/10/08 12:21:56;;;;;;;;;4.75;4.75;;;;;;;;5106171;27;45161;-79
2022/10/08 12:24:37;;;;;;;;;1.00;1.00;;;;;;;;5103512;27;45368;-80
2022/10/08 12:27:17;;;;;;;;;0.00;0.00;;;;;;;;5105229;27;45374;-79
2022/10/08 12:29:52;;;;;;;;;1.00;1.00;;;;;;;;5105267;27;45311;-78
2022/10/08 12:32:17;;;;;;;;;1.00;1.00;;;;;;;;5104686;27;45631;-80
2022/10/08 12:34:43;;;;;;;;;1.00;1.00;;;;;;;;5105126;27;45249;-79
2022/10/08 12:37:21;;;;;;;;;2.25;2.25;;;;;;;;5104405;27;45147;-77
2022/10/08 12:39:47;;;;;;;;;2.00;2.00;;;;;;;;5104066;27;45385;-79
2022/10/08 12:42:21;;;;;;;;;1.00;1.00;;;;;;;;5103828;27;45362;-77
2022/10/08 12:45:05;;;;;;;;;1.75;1.75;;;;;;;;5102108;27;45366;-77
2022/10/08 12:47:42;;;;;;;;;11.25;11.25;;;;;;;;5100417;27;45383;-77
2022/10/08 12:50:21;;;;;;;;;11.00;11.00;;;;;;;;5100963;27;45372;-80
2022/10/08 12:52:46;;;;;;;;;15.00;14.25;;;;;;;;5101800;27;46411;-78
2022/10/08 12:55:20;;;;;;;;;10.00;10.00;;;;;;;;5099487;27;45330;-80
2022/10/08 12:57:47;;;;;;;;;10.25;10.25;;;;;;;;5098319;27;45345;-79
2022/10/08 13:00:18;;;;;;;;;3.00;3.00;;;;;;;;5098868;27;45176;-79
2022/10/08 13:02:56;;;;;;;;;3.00;2.00;;;;;;;;5099628;27;45407;-79
2022/10/08 13:05:26;;;;;;;;;1.50;1.50;;;;;;;;5107411;27;45306;-77
2022/10/08 13:07:51;;;;;;;;;1.25;1.25;;;;;;;;5101300;27;45424;-78
2022/10/08 13:10:20;;;;;;;;;1.00;1.00;;;;;;;;5099542;27;45349;-79
2022/10/08 13:13:07;;;;;;;;;1.00;1.00;;;;;;;;5100900;27;45262;-78
2022/10/08 13:15:33;;;;;;;;;2.75;2.75;;;;;;;;5103545;27;45557;-77
2022/10/08 13:18:19;;;;;;;;;4.50;4.50;;;;;;;;5099090;27;45365;-78
2022/10/08 13:20:55;;;;;;;;;2.00;2.00;;;;;;;;5100019;27;45203;-78
2022/10/08 13:23:41;;;;;;;;;4.00;4.00;;;;;;;;5098023;27;46322;-78
2022/10/08 13:26:25;;;;;;;;;1.50;1.50;;;;;;;;5110424;27;45303;-78
2022/10/08 13:28:50;;;;;;;;;1.00;1.00;;;;;;;;5103294;27;45543;-79
2022/10/08 13:31:24;;;;;;;;;1.75;1.75;;;;;;;;5103217;27;45321;-79
2022/10/08 13:33:50;;;;;;;;;1.00;1.00;;;;;;;;5105728;27;45606;-79
2022/10/08 13:36:19;;;;;;;;;1.00;1.00;;;;;;;;5113680;27;45350;-78
2022/10/08 13:38:45;;;;;;;;;2.00;1.00;;;;;;;;5117594;27;44867;-79
2022/10/08 13:41:22;;;;;;;;;4.00;4.00;;;;;;;;5104375;27;45306;-78
2022/10/08 13:43:47;;;;;;;;;11.00;11.00;;;;;;;;5101739;27;45298;-78
2022/10/08 13:46:12;;;;;;;;;5.00;5.00;;;;;;;;5101966;27;45407;-78
2022/10/08 13:48:41;;;;;;;;;4.00;4.00;;;;;;;;5107487;27;45320;-78
2022/10/08 13:51:09;;;;;;;;;2.00;2.00;;;;;;;;5117129;27;45452;-78
2022/10/08 13:53:36;;;;;;;;;1.50;1.50;;;;;;;;5106768;27;45407;-78
2022/10/08 13:56:01;;;;;;;;;1.00;1.00;;;;;;;;5099762;27;45418;-77
2022/10/08 13:58:26;;;;;;;;;1.75;1.75;;;;;;;;5100905;27;45218;-79
2022/10/08 14:00:53;;;;;;;;;1.25;1.25;;;;;;;;5099467;27;45353;-77
2022/10/08 14:03:18;;;;;;;;;1.50;1.50;;;;;;;;5097667;27;45951;-77
2022/10/08 14:05:45;;;;;;;;;4.00;4.00;;;;;;;;5098965;27;45391;-77
2022/10/08 14:08:12;;;;;;;;;4.50;4.50;;;;;;;;5097924;27;45400;-77
2022/10/08 14:10:39;;;;;;;;;2.75;2.75;;;;;;;;5098505;27;45965;-77
2022/10/08 14:13:04;;;;;;;;;3.50;3.50;;;;;;;;5097868;27;45297;-78
2022/10/08 14:15:29;;;;;;;;;3.00;3.00;;;;;;;;5098618;27;45435;-80
2022/10/08 14:17:55;;;;;;;;;3.25;3.25;;;;;;;;5099131;27;45322;-78
2022/10/08 14:20:20;;;;;;;;;1.50;1.50;;;;;;;;5100381;27;45527;-79
2022/10/08 14:22:45;;;;;;;;;2.00;2.00;;;;;;;;5097732;27;47288;-79
2022/10/08 14:25:15;;;;;;;;;2.50;2.50;;;;;;;;5100472;27;45348;-80
2022/10/08 14:27:40;;;;;;;;;3.00;3.00;;;;;;;;5099946;27;45261;-78
2022/10/08 14:30:06;;;;;;;;;2.50;2.50;;;;;;;;5102895;27;45320;-79
2022/10/08 14:32:31;;;;;;;;;5.25;5.25;;;;;;;;5111863;27;46419;-77
2022/10/08 14:34:56;;;;;;;;;9.00;9.00;;;;;;;;5100295;27;45417;-81
2022/10/08 14:37:21;;;;;;;;;3.50;3.50;;;;;;;;5097956;27;45414;-79
2022/10/08 14:39:47;;;;;;;;;2.50;2.50;;;;;;;;5098887;27;45666;-78
2022/10/08 14:42:12;;;;;;;;;10.25;10.25;;;;;;;;5098149;27;46142;-78
2022/10/08 14:44:37;;;;;;;;;1.50;1.50;;;;;;;;5098264;27;45302;-79
2022/10/08 14:47:02;;;;;;;;;2.00;2.00;;;;;;;;5097676;27;45239;-79
2022/10/08 14:49:28;;;;;;;;;3.00;3.00;;;;;;;;5098470;27;45433;-77